Nearby METAR Reports

 

KT74 - Taylor Muni, Texas, USA
Distance from station: W 2mi, 3km
Updated: Mon, 05-Dec-2022 2:35pm CST
Mostly cloudy
Mostly cloudy
 Wind from SSW
Wind: SSW 18 mph , 30 km/h, Gust: 26 mph , 43 km/h
Temperature: 77°F , 25°C
Dew Point: 63°F , 17°C
Humidity: 61%
Barometer: 29.86 inHg , 1011.2 hPa
Clouds: Mostly cloudy
Visibility: 10 miles , 16 km
Cloud details: Mostly cloudy 3100 ft
2022/12/05 20:35 KT74 052035Z AUTO 20016G23KT 10SM BKN031 25/17 A2986 RMK AO2 T02520173
KEDC - Austin Exec, Texas, USA
Distance from station: SW 16mi, 25km
Updated: Mon, 05-Dec-2022 2:35pm CST
Partly cloudy
Partly cloudy
 Wind from SW
Wind: SW 21 mph , 33 km/h, Gust: 24 mph , 39 km/h
Temperature: 77°F , 25°C
Dew Point: 68°F , 20°C
Humidity: 74%
Barometer: 29.85 inHg , 1010.8 hPa
Clouds: Partly cloudy
Visibility: 10 miles , 16 km
Cloud details: Partly cloudy 3200 ft
2022/12/05 20:35 KEDC 052035Z AUTO 22018G21KT 10SM SCT032 25/20 A2985 RMK AO2
 
KGTU - Georgetown, Texas, USA
Distance from station: WNW 17mi, 28km
Updated: Mon, 05-Dec-2022 2:56pm CST
Mostly cloudy
Mostly cloudy
 Wind from SW
Wind: SW 13 mph , 20 km/h, Gust: 21 mph , 33 km/h
Temperature: 73°F , 23°C
Dew Point: 64°F , 18°C
Humidity: 74%
Barometer: 29.88 inHg , 1011.9 hPa
Clouds: Mostly cloudy
Visibility: 10 miles , 16 km
Cloud details: Mostly cloudy 2700 ft
2022/12/05 20:56 KGTU 052056Z 22011G18KT 10SM BKN027 23/18 A2988 RMK AO2 SLP115 T02330178 56024
KATT - Austin/Mabry, Texas, USA
Distance from station: SW 28mi, 45km
Updated: Mon, 05-Dec-2022 2:51pm CST
Partly cloudy
Partly cloudy
 Wind from SSW
Wind: SSW 9 mph , 15 km/h, Gust: 22 mph , 35 km/h
Temperature: 75°F , 24°C
Dew Point: 63°F , 17°C
Humidity: 65%
Barometer: 29.87 inHg , 1011.5 hPa
Clouds: Partly cloudy
Visibility: 10 miles , 16 km
Cloud details: Partly cloudy 3100 ft
2022/12/05 20:51 KATT 052051Z AUTO 21008G19KT 10SM SCT031 24/17 A2987 RMK AO2 SLP109 T02440172 56028
 
KAUS - Austin, Texas, USA
Distance from station: SSW 32mi, 51km
Updated: Mon, 05-Dec-2022 2:53pm CST
Partly cloudy
Partly cloudy
 Wind from SSW
Wind: SSW 21 mph , 33 km/h, Gust: 31 mph , 50 km/h
Temperature: 77°F , 25°C
Dew Point: 64°F , 18°C
Humidity: 65%
Barometer: 29.85 inHg , 1010.8 hPa
Clouds: Partly cloudy
Visibility: 10 miles , 16 km
Cloud details: Few Clouds 3600 ft
Partly cloudy 20000 ft
2022/12/05 20:53 KAUS 052053Z 21018G27KT 10SM FEW036 SCT200 25/18 A2985 RMK AO2 PK WND 21031/2035 SLP102 T02500178 56034
KRYW - Lago Vista, Texas, USA
Distance from station: W 33mi, 54km
Updated: Mon, 05-Dec-2022 2:55pm CST
Overcast
Overcast
 Wind from SW
Wind: SW 10 mph , 17 km/h
Temperature: 72°F , 22°C
Dew Point: 64°F , 18°C
Humidity: 78%
Barometer: 29.88 inHg , 1011.9 hPa
Clouds: Overcast
Visibility: 10 miles , 16 km
Cloud details: Overcast 2100 ft
2022/12/05 20:55 KRYW 052055Z AUTO 23009KT 10SM OVC021 22/18 A2988 RMK AO2 T02200175
 
KILE - Killeen Muni, Texas, USA
Distance from station: NNW 37mi, 59km
Updated: Mon, 05-Dec-2022 2:56pm CST

 Wind from S
Wind: S 16 mph , 26 km/h
Temperature: 75°F , 24°C
Dew Point: 64°F , 18°C
Humidity: 69%
Barometer: 29.85 inHg , 1010.8 hPa
Visibility: 10 miles , 16 km
2022/12/05 20:56 KILE 052056Z AUTO 18014KT 10SM 24/18 A2985 RMK AO2 SLP099 T02440178 56023 $
KTPL - Temple/Miller, Texas, USA
Distance from station: N 38mi, 61km
Updated: Mon, 05-Dec-2022 2:51pm CST
Few Clouds
Few Clouds
 Wind from S
Wind: S 18 mph , 30 km/h
Temperature: 75°F , 24°C
Dew Point: 64°F , 18°C
Humidity: 69%
Barometer: 29.85 inHg , 1010.8 hPa
Clouds: Few Clouds
Cloud details: Few Clouds 2500 ft
2022/12/05 20:51 KTPL 052051Z AUTO 19016KT FEW025 24/18 A2985 RMK AO2 PK WND 20028/2025 SLP099 6//// T02440183 56021 PWINO RVRNO $
 
KGYB - Giddings-Lee, Texas, USA
Distance from station: SE 39mi, 62km
Updated: Mon, 05-Dec-2022 2:55pm CST
Partly cloudy
Partly cloudy
 Wind from SSW
Wind: SSW 10 mph , 17 km/h, Gust: 17 mph , 28 km/h
Temperature: 79°F , 26°C
Dew Point: 63°F , 17°C
Humidity: 58%
Barometer: 29.89 inHg , 1012.2 hPa
Clouds: Partly cloudy
Visibility: 10 miles , 16 km
Cloud details: Partly cloudy 3600 ft
2022/12/05 20:55 KGYB 052055Z AUTO 20009G15KT 10SM SCT036 26/17 A2989 RMK AO2 T02550174
KHLR - Ft Hood/Killeen, Texas, USA
Distance from station: NNW 42mi, 67km
Updated: Mon, 05-Dec-2022 2:55pm CST
Mostly cloudy
Mostly cloudy
 Wind from S
Wind: S 13 mph , 20 km/h, Gust: 20 mph , 31 km/h
Temperature: 77°F , 25°C
Dew Point: 64°F , 18°C
Humidity: 65%
Barometer: 29.85 inHg , 1010.8 hPa
Clouds: Mostly cloudy
Visibility: 10 miles , 16 km
Cloud details: Few Clouds 2600 ft
Mostly cloudy 19000 ft
2022/12/05 20:55 KHLR 052055Z AUTO 19011G17KT 10SM FEW026 BKN190 25/18 A2985 RMK AO2 SLP102 T02540178 57025